Time;durP1;ratioP1;P1;durP2;ratioP2;P2;SDS_P1;SDS_P2;PMS_P1;PMS_P2;Temp;Humidity;BMP_temperature;BMP_pressure;BME280_temperature;BME280_humidity;BME280_pressure;Samples;Min_cycle;Max_cycle;Signal;HPM_P1;HPM_P2
2022/09/13 00:01:19;;;;;;;5.08;3.45;;;;;;;;;;1749610;81;21023;-63
2022/09/13 00:03:45;;;;;;;4.90;3.50;;;;;;;;;;1744305;81;21066;-63
2022/09/13 00:06:12;;;;;;;5.92;3.50;;;;;;;;;;1744517;81;21035;-63
2022/09/13 00:08:40;;;;;;;4.08;3.37;;;;;;;;;;1746522;80;21099;-63
2022/09/13 00:11:06;;;;;;;4.90;3.58;;;;;;;;;;1743911;81;21035;-63
2022/09/13 00:13:33;;;;;;;4.40;3.33;;;;;;;;;;1736167;82;21032;-64
2022/09/13 00:16:02;;;;;;;6.50;3.95;;;;;;;;;;1735344;82;21063;-64
2022/09/13 00:18:27;;;;;;;4.92;3.90;;;;;;;;;;1737562;81;21626;-62
2022/09/13 00:20:55;;;;;;;6.28;4.10;;;;;;;;;;1742959;81;21047;-62
2022/09/13 00:23:22;;;;;;;6.03;3.87;;;;;;;;;;1739353;82;21036;-63
2022/09/13 00:25:48;;;;;;;5.62;3.85;;;;;;;;;;1751514;80;21050;-63
2022/09/13 00:28:14;;;;;;;5.67;3.60;;;;;;;;;;1738284;81;21051;-63
2022/09/13 00:30:40;;;;;;;6.28;3.90;;;;;;;;;;1751676;80;21019;-63
2022/09/13 00:33:06;;;;;;;7.50;4.12;;;;;;;;;;1718520;83;21176;-63
2022/09/13 00:35:34;;;;;;;4.75;3.40;;;;;;;;;;1752601;81;21842;-63
2022/09/13 00:38:00;;;;;;;5.67;4.20;;;;;;;;;;1720784;81;21390;-64
2022/09/13 00:40:29;;;;;;;5.55;3.67;;;;;;;;;;1728115;81;21107;-63
2022/09/13 00:42:55;;;;;;;6.85;4.75;;;;;;;;;;1723296;83;21060;-64
2022/09/13 00:45:21;;;;;;;6.28;4.17;;;;;;;;;;1739532;82;21466;-64
2022/09/13 00:47:52;;;;;;;10.10;4.80;;;;;;;;;;1740146;81;21059;-64
2022/09/13 00:50:20;;;;;;;9.43;4.50;;;;;;;;;;1738144;82;21075;-63
2022/09/13 00:52:52;;;;;;;7.55;4.60;;;;;;;;;;1741573;81;21641;-63
2022/09/13 00:55:19;;;;;;;6.30;4.25;;;;;;;;;;1738533;81;21485;-63
2022/09/13 00:57:45;;;;;;;7.15;4.60;;;;;;;;;;1740256;81;20969;-63
2022/09/13 01:00:13;;;;;;;6.03;4.53;;;;;;;;;;1741448;82;20933;-63
2022/09/13 01:05:22;;;;;;;6.20;4.12;;;;;;;;;;1754203;78;75754;-74
2022/09/13 01:07:48;;;;;;;6.45;4.60;;;;;;;;;;1754634;81;21494;-74
2022/09/13 01:10:14;;;;;;;6.75;4.55;;;;;;;;;;1758435;81;21068;-74
2022/09/13 01:12:43;;;;;;;5.78;4.37;;;;;;;;;;1754354;81;21017;-74
2022/09/13 01:15:09;;;;;;;5.67;4.17;;;;;;;;;;1760557;81;21007;-74
2022/09/13 01:17:35;;;;;;;8.08;4.58;;;;;;;;;;1762734;81;21057;-74
2022/09/13 01:20:02;;;;;;;6.22;4.20;;;;;;;;;;1759882;81;21069;-75
2022/09/13 01:22:35;;;;;;;7.30;4.10;;;;;;;;;;1756701;81;21084;-74
2022/09/13 01:25:03;;;;;;;5.47;3.90;;;;;;;;;;1760594;81;21012;-74
2022/09/13 01:27:43;;;;;;;4.95;3.42;;;;;;;;;;1764281;81;21040;-75
2022/09/13 01:30:17;;;;;;;6.10;3.70;;;;;;;;;;1758335;81;21055;-73
2022/09/13 01:33:04;;;;;;;5.00;3.60;;;;;;;;;;1769087;81;21025;-74
2022/09/13 01:35:36;;;;;;;6.33;3.90;;;;;;;;;;1757774;81;21025;-75
2022/09/13 01:38:13;;;;;;;6.20;4.12;;;;;;;;;;1761148;81;21024;-74
2022/09/13 01:40:59;;;;;;;8.30;4.03;;;;;;;;;;1763860;81;21095;-74
2022/09/13 01:43:28;;;;;;;8.05;4.47;;;;;;;;;;1761707;81;21563;-74
2022/09/13 01:45:56;;;;;;;6.62;4.25;;;;;;;;;;1756127;80;21008;-74
2022/09/13 01:48:29;;;;;;;7.25;4.60;;;;;;;;;;1763367;81;21016;-74
2022/09/13 01:51:06;;;;;;;8.43;5.40;;;;;;;;;;1758788;81;21016;-74
2022/09/13 01:53:49;;;;;;;7.15;4.45;;;;;;;;;;1759356;81;21013;-74
2022/09/13 01:56:26;;;;;;;7.63;4.13;;;;;;;;;;1757564;81;21511;-74
2022/09/13 01:59:07;;;;;;;7.22;4.67;;;;;;;;;;1765168;81;21032;-74
2022/09/13 02:01:35;;;;;;;6.35;4.55;;;;;;;;;;1761689;81;21055;-74
2022/09/13 02:04:08;;;;;;;6.25;4.30;;;;;;;;;;1745109;81;21032;-74
2022/09/13 02:06:36;;;;;;;6.65;4.30;;;;;;;;;;1750004;80;21552;-74
2022/09/13 02:09:03;;;;;;;7.20;4.42;;;;;;;;;;1742203;82;21005;-74
2022/09/13 02:11:30;;;;;;;6.28;4.30;;;;;;;;;;1748850;82;21008;-74
2022/09/13 02:14:10;;;;;;;6.65;4.47;;;;;;;;;;1744799;81;21063;-74
2022/09/13 02:16:41;;;;;;;6.55;4.40;;;;;;;;;;1747363;81;21059;-75
2022/09/13 02:19:09;;;;;;;6.62;4.08;;;;;;;;;;1749633;80;20979;-74
2022/09/13 02:21:38;;;;;;;5.65;3.72;;;;;;;;;;1746463;80;20993;-74
2022/09/13 02:24:08;;;;;;;6.35;4.10;;;;;;;;;;1742539;81;20977;-74
2022/09/13 02:26:35;;;;;;;5.40;4.03;;;;;;;;;;1743969;81;20977;-74
2022/09/13 02:29:05;;;;;;;7.37;4.55;;;;;;;;;;1745643;82;21575;-75
2022/09/13 02:31:36;;;;;;;6.28;4.10;;;;;;;;;;1745969;81;21052;-75
2022/09/13 02:34:04;;;;;;;6.37;3.83;;;;;;;;;;1747056;82;21552;-75
2022/09/13 02:36:31;;;;;;;5.75;4.10;;;;;;;;;;1738401;81;21017;-75
2022/09/13 02:38:59;;;;;;;6.15;4.30;;;;;;;;;;1745737;81;21055;-75
2022/09/13 02:41:44;;;;;;;6.00;4.35;;;;;;;;;;1742386;81;21048;-76
2022/09/13 02:44:29;;;;;;;7.70;4.85;;;;;;;;;;1742799;81;21055;-74
2022/09/13 02:47:02;;;;;;;8.30;5.28;;;;;;;;;;1743274;81;20905;-74
2022/09/13 02:49:30;;;;;;;7.20;5.05;;;;;;;;;;1737451;81;21049;-75
2022/09/13 02:51:58;;;;;;;8.60;5.60;;;;;;;;;;1746398;81;21073;-74
2022/09/13 02:54:26;;;;;;;7.37;5.05;;;;;;;;;;1724416;81;21061;-74
2022/09/13 02:56:54;;;;;;;7.10;5.22;;;;;;;;;;1695045;84;21081;-76
2022/09/13 02:59:21;;;;;;;8.30;5.05;;;;;;;;;;1731418;83;21067;-75
2022/09/13 03:01:48;;;;;;;6.05;4.70;;;;;;;;;;1751072;81;20969;-76
2022/09/13 03:04:14;;;;;;;6.53;5.08;;;;;;;;;;1737474;81;21661;-75
2022/09/13 03:06:41;;;;;;;7.47;4.85;;;;;;;;;;1759977;81;20980;-75
2022/09/13 03:09:07;;;;;;;6.55;4.85;;;;;;;;;;1755118;81;20960;-73
2022/09/13 03:11:41;;;;;;;6.25;4.75;;;;;;;;;;1749687;81;20949;-75
2022/09/13 03:14:21;;;;;;;6.55;5.08;;;;;;;;;;1753933;81;21597;-75
2022/09/13 03:16:55;;;;;;;6.78;4.97;;;;;;;;;;1755763;81;20988;-75
2022/09/13 03:19:29;;;;;;;6.62;4.90;;;;;;;;;;1756287;80;21020;-75
2022/09/13 03:21:57;;;;;;;7.28;4.17;;;;;;;;;;1712289;81;21019;-75
2022/09/13 03:24:37;;;;;;;6.03;4.53;;;;;;;;;;1748608;81;21064;-75
2022/09/13 03:27:14;;;;;;;6.42;4.80;;;;;;;;;;1753237;81;20984;-75
2022/09/13 03:29:50;;;;;;;4.67;4.05;;;;;;;;;;1753681;80;21022;-75
2022/09/13 03:32:27;;;;;;;6.47;4.70;;;;;;;;;;1756073;80;21468;-75
2022/09/13 03:34:58;;;;;;;6.97;5.08;;;;;;;;;;1756236;81;21041;-74
2022/09/13 03:37:26;;;;;;;6.05;4.90;;;;;;;;;;1753167;81;21052;-74
2022/09/13 03:39:56;;;;;;;6.20;4.70;;;;;;;;;;1751186;81;22184;-74
2022/09/13 03:42:24;;;;;;;6.60;5.22;;;;;;;;;;1749228;81;21512;-74
2022/09/13 03:44:50;;;;;;;5.08;4.47;;;;;;;;;;1749849;81;21024;-74
2022/09/13 03:47:16;;;;;;;5.65;4.80;;;;;;;;;;1752437;81;21495;-74
2022/09/13 03:49:43;;;;;;;4.95;4.17;;;;;;;;;;1753898;80;20972;-73
2022/09/13 03:52:10;;;;;;;7.25;5.10;;;;;;;;;;1749649;81;21558;-73
2022/09/13 03:54:37;;;;;;;5.58;4.40;;;;;;;;;;1752694;81;21036;-74
2022/09/13 03:57:10;;;;;;;7.65;5.22;;;;;;;;;;1755245;81;21020;-73
2022/09/13 03:59:37;;;;;;;8.40;4.58;;;;;;;;;;1755526;81;22169;-74
2022/09/13 04:02:04;;;;;;;5.78;4.70;;;;;;;;;;1754756;81;20996;-74
2022/09/13 04:04:31;;;;;;;6.00;4.60;;;;;;;;;;1755912;80;21095;-74
2022/09/13 04:07:00;;;;;;;5.97;4.50;;;;;;;;;;1754325;81;21653;-74
2022/09/13 04:09:27;;;;;;;6.03;4.35;;;;;;;;;;1751730;81;21650;-74
2022/09/13 04:11:53;;;;;;;7.30;4.95;;;;;;;;;;1753159;81;21059;-75
2022/09/13 04:15:17;;;;;;;6.08;4.35;;;;;;;;;;1795776;78;22819;-63
2022/09/13 04:17:45;;;;;;;5.28;4.72;;;;;;;;;;1773974;80;21625;-62
2022/09/13 04:20:10;;;;;;;8.70;4.78;;;;;;;;;;1778735;79;21016;-63
2022/09/13 04:22:36;;;;;;;8.90;5.53;;;;;;;;;;1781180;80;21028;-62
2022/09/13 04:25:04;;;;;;;8.35;5.35;;;;;;;;;;1777490;79;21087;-62
2022/09/13 04:27:30;;;;;;;7.45;5.78;;;;;;;;;;1783315;80;21484;-65
2022/09/13 04:29:56;;;;;;;7.90;5.60;;;;;;;;;;1777892;80;21028;-65
2022/09/13 04:32:23;;;;;;;12.30;6.58;;;;;;;;;;1775634;79;21036;-65
2022/09/13 04:34:49;;;;;;;9.05;6.30;;;;;;;;;;1774480;80;21001;-65
2022/09/13 04:37:15;;;;;;;7.47;5.47;;;;;;;;;;1778335;80;22066;-65
2022/09/13 04:39:42;;;;;;;9.58;5.87;;;;;;;;;;1775254;79;21048;-65
2022/09/13 04:42:10;;;;;;;10.15;6.10;;;;;;;;;;1781135;80;21052;-65
2022/09/13 04:44:36;;;;;;;9.20;6.55;;;;;;;;;;1775764;80;21055;-64
2022/09/13 04:47:03;;;;;;;10.00;6.70;;;;;;;;;;1778904;79;21052;-64
2022/09/13 04:49:29;;;;;;;8.28;5.58;;;;;;;;;;1778543;80;21013;-64
2022/09/13 04:51:56;;;;;;;8.10;5.67;;;;;;;;;;1778103;80;21075;-64
2022/09/13 04:54:23;;;;;;;10.55;6.95;;;;;;;;;;1782783;80;21075;-64
2022/09/13 04:56:49;;;;;;;9.60;7.03;;;;;;;;;;1779590;80;21048;-68
2022/09/13 04:59:15;;;;;;;9.73;6.85;;;;;;;;;;1780025;79;21019;-68
2022/09/13 05:01:42;;;;;;;10.15;7.30;;;;;;;;;;1777805;80;21047;-68
2022/09/13 05:04:08;;;;;;;10.32;7.20;;;;;;;;;;1780045;80;21003;-67
2022/09/13 05:06:34;;;;;;;11.68;7.08;;;;;;;;;;1771872;79;21049;-62
2022/09/13 05:09:00;;;;;;;10.48;7.15;;;;;;;;;;1754945;80;22128;-62
2022/09/13 05:11:26;;;;;;;10.35;6.33;;;;;;;;;;1754480;80;21329;-62
2022/09/13 05:13:55;;;;;;;11.20;6.42;;;;;;;;;;1756259;80;21126;-63
2022/09/13 05:16:22;;;;;;;10.18;5.72;;;;;;;;;;1732874;82;21008;-62
2022/09/13 05:18:49;;;;;;;13.80;7.10;;;;;;;;;;1742160;81;21053;-62
2022/09/13 05:21:15;;;;;;;11.53;7.20;;;;;;;;;;1737533;81;21019;-61
2022/09/13 05:23:41;;;;;;;11.08;7.40;;;;;;;;;;1740310;81;21068;-62
2022/09/13 05:26:08;;;;;;;13.10;6.78;;;;;;;;;;1738932;81;21037;-62
2022/09/13 05:28:34;;;;;;;11.75;6.87;;;;;;;;;;1737536;80;21047;-63
2022/09/13 05:31:02;;;;;;;10.65;6.47;;;;;;;;;;1737696;81;21033;-63
2022/09/13 05:33:30;;;;;;;9.88;6.55;;;;;;;;;;1733048;82;21080;-63
2022/09/13 05:35:56;;;;;;;10.80;6.60;;;;;;;;;;1740300;81;21618;-62
2022/09/13 05:38:22;;;;;;;11.15;7.05;;;;;;;;;;1737135;81;21056;-63
2022/09/13 05:40:50;;;;;;;11.05;7.65;;;;;;;;;;1739129;81;21618;-62
2022/09/13 05:43:16;;;;;;;14.70;7.15;;;;;;;;;;1735303;80;21029;-64
2022/09/13 05:45:42;;;;;;;12.82;7.72;;;;;;;;;;1739547;81;22364;-63
2022/09/13 05:48:09;;;;;;;12.70;7.72;;;;;;;;;;1739386;81;21057;-63
2022/09/13 05:50:38;;;;;;;13.15;7.75;;;;;;;;;;1744264;81;21002;-63
2022/09/13 05:53:04;;;;;;;13.75;7.45;;;;;;;;;;1746247;81;21072;-63
2022/09/13 05:55:30;;;;;;;12.75;7.87;;;;;;;;;;1745150;81;21064;-63
2022/09/13 05:57:57;;;;;;;12.82;7.28;;;;;;;;;;1741687;80;21588;-63
2022/09/13 06:00:23;;;;;;;10.35;6.80;;;;;;;;;;1740907;81;21202;-64
2022/09/13 06:02:49;;;;;;;11.45;7.40;;;;;;;;;;1742630;80;21007;-64
2022/09/13 06:05:16;;;;;;;10.35;6.83;;;;;;;;;;1734870;81;21106;-64
2022/09/13 06:07:42;;;;;;;13.10;6.25;;;;;;;;;;1738658;81;21556;-64
2022/09/13 06:10:09;;;;;;;11.43;6.47;;;;;;;;;;1747555;81;21120;-64
2022/09/13 06:12:37;;;;;;;12.28;7.15;;;;;;;;;;1741266;81;21072;-63
2022/09/13 06:15:03;;;;;;;9.53;6.62;;;;;;;;;;1739638;80;21003;-63
2022/09/13 06:17:30;;;;;;;10.32;6.83;;;;;;;;;;1753917;80;21517;-63
2022/09/13 06:19:56;;;;;;;11.88;6.62;;;;;;;;;;1749852;80;21044;-64
2022/09/13 06:22:22;;;;;;;12.60;6.75;;;;;;;;;;1746702;82;21223;-63
2022/09/13 06:24:48;;;;;;;12.90;6.92;;;;;;;;;;1746045;81;21200;-64
2022/09/13 06:27:14;;;;;;;10.10;6.80;;;;;;;;;;1741774;80;21034;-63
2022/09/13 06:29:40;;;;;;;9.15;6.37;;;;;;;;;;1753551;80;21083;-63
2022/09/13 06:32:07;;;;;;;8.63;5.80;;;;;;;;;;1742160;80;21056;-64
2022/09/13 06:34:33;;;;;;;8.55;6.15;;;;;;;;;;1750720;80;21025;-65
2022/09/13 06:36:59;;;;;;;9.28;6.00;;;;;;;;;;1755804;80;21083;-62
2022/09/13 06:39:25;;;;;;;8.10;5.28;;;;;;;;;;1746260;80;21043;-63
2022/09/13 06:41:52;;;;;;;9.85;6.03;;;;;;;;;;1743567;82;21524;-64
2022/09/13 06:44:19;;;;;;;10.30;6.10;;;;;;;;;;1748887;80;21043;-64
2022/09/13 06:46:46;;;;;;;9.98;5.87;;;;;;;;;;1745291;80;21048;-64
2022/09/13 06:49:12;;;;;;;9.50;5.97;;;;;;;;;;1753967;80;21116;-64
2022/09/13 06:51:38;;;;;;;11.00;6.45;;;;;;;;;;1746191;80;21573;-64
2022/09/13 06:54:04;;;;;;;9.63;6.60;;;;;;;;;;1756802;80;21563;-64
2022/09/13 06:56:31;;;;;;;10.60;7.05;;;;;;;;;;1740475;80;21071;-63
2022/09/13 06:58:58;;;;;;;8.80;6.05;;;;;;;;;;1743326;82;21036;-64
2022/09/13 07:01:25;;;;;;;10.32;6.45;;;;;;;;;;1749438;81;21028;-63
2022/09/13 07:03:53;;;;;;;11.60;6.00;;;;;;;;;;1751380;80;21038;-62
2022/09/13 07:06:20;;;;;;;9.80;6.17;;;;;;;;;;1752727;80;21025;-63
2022/09/13 07:08:47;;;;;;;10.78;6.10;;;;;;;;;;1747737;80;21204;-63
2022/09/13 07:11:14;;;;;;;9.00;6.40;;;;;;;;;;1748915;80;21083;-63
2022/09/13 07:13:40;;;;;;;8.03;5.80;;;;;;;;;;1745335;80;21068;-63
2022/09/13 07:16:08;;;;;;;9.58;6.50;;;;;;;;;;1758914;80;21039;-63
2022/09/13 07:18:35;;;;;;;10.13;6.35;;;;;;;;;;1755353;80;21051;-61
2022/09/13 07:21:08;;;;;;;13.28;6.85;;;;;;;;;;1752599;80;21075;-62
2022/09/13 07:23:35;;;;;;;11.30;6.47;;;;;;;;;;1754061;80;21019;-62
2022/09/13 07:26:01;;;;;;;10.48;6.95;;;;;;;;;;1757840;80;21102;-62
2022/09/13 07:28:29;;;;;;;9.75;6.20;;;;;;;;;;1756828;80;21156;-63
2022/09/13 07:30:57;;;;;;;11.05;6.35;;;;;;;;;;1756821;80;21002;-63
2022/09/13 07:33:25;;;;;;;10.90;6.67;;;;;;;;;;1751917;80;21562;-62
2022/09/13 07:35:55;;;;;;;10.88;6.67;;;;;;;;;;1757737;80;21000;-63
2022/09/13 07:38:21;;;;;;;11.63;6.70;;;;;;;;;;1754392;80;21040;-63
2022/09/13 07:40:54;;;;;;;11.28;5.92;;;;;;;;;;1755366;81;21032;-62
2022/09/13 07:43:20;;;;;;;10.75;6.67;;;;;;;;;;1745337;80;21717;-61
2022/09/13 07:45:48;;;;;;;7.87;5.58;;;;;;;;;;1750255;80;21029;-63
2022/09/13 07:48:18;;;;;;;9.15;6.00;;;;;;;;;;1758542;81;21341;-63
2022/09/13 07:50:41;;;;;;;11.28;6.62;;;;;;;;;;1757675;80;21025;-63
2022/09/13 07:53:08;;;;;;;10.75;6.15;;;;;;;;;;1763608;80;21091;-63
2022/09/13 07:55:34;;;;;;;13.50;6.92;;;;;;;;;;1754866;80;21063;-62
2022/09/13 07:58:00;;;;;;;10.40;7.08;;;;;;;;;;1756151;80;21031;-61
2022/09/13 08:00:27;;;;;;;12.23;7.37;;;;;;;;;;1747382;80;21070;-62
2022/09/13 08:02:53;;;;;;;11.03;7.42;;;;;;;;;;1749212;80;21053;-62
2022/09/13 08:05:19;;;;;;;11.10;7.28;;;;;;;;;;1752067;81;21136;-64
2022/09/13 08:07:47;;;;;;;8.38;6.30;;;;;;;;;;1754182;80;21094;-64
2022/09/13 08:10:14;;;;;;;8.78;6.70;;;;;;;;;;1753448;80;21012;-63
2022/09/13 08:12:40;;;;;;;10.88;6.85;;;;;;;;;;1749623;81;21004;-63
2022/09/13 08:15:07;;;;;;;11.53;7.25;;;;;;;;;;1747824;81;21569;-61
2022/09/13 08:17:33;;;;;;;11.68;7.40;;;;;;;;;;1752347;80;21508;-63
2022/09/13 08:19:59;;;;;;;14.15;8.35;;;;;;;;;;1752196;81;21021;-62
2022/09/13 08:22:26;;;;;;;14.68;8.60;;;;;;;;;;1742588;81;21068;-62
2022/09/13 08:24:52;;;;;;;10.50;7.47;;;;;;;;;;1744527;80;21036;-63
2022/09/13 08:27:18;;;;;;;9.23;6.78;;;;;;;;;;1754555;80;21012;-63
2022/09/13 08:29:45;;;;;;;12.15;7.22;;;;;;;;;;1738918;82;20989;-63
2022/09/13 08:32:11;;;;;;;12.00;8.15;;;;;;;;;;1751085;80;21517;-63
2022/09/13 08:34:37;;;;;;;13.70;7.42;;;;;;;;;;1749983;80;21113;-63
2022/09/13 08:37:03;;;;;;;10.80;7.40;;;;;;;;;;1749879;80;21017;-63
2022/09/13 08:39:29;;;;;;;14.47;7.72;;;;;;;;;;1746658;81;21017;-63
2022/09/13 08:42:09;;;;;;;11.18;7.25;;;;;;;;;;1737830;82;22141;-63
2022/09/13 08:44:40;;;;;;;10.93;7.37;;;;;;;;;;1741220;80;21058;-64
2022/09/13 08:47:09;;;;;;;8.88;6.55;;;;;;;;;;1736682;81;21504;-64
2022/09/13 08:49:37;;;;;;;10.30;6.97;;;;;;;;;;1743691;82;21026;-63
2022/09/13 08:52:05;;;;;;;11.73;7.97;;;;;;;;;;1744159;81;21048;-64
2022/09/13 08:54:31;;;;;;;10.98;6.70;;;;;;;;;;1734366;81;21032;-63
2022/09/13 08:57:14;;;;;;;12.78;7.85;;;;;;;;;;1722797;82;21080;-64
2022/09/13 08:59:54;;;;;;;11.35;7.45;;;;;;;;;;1745897;80;21095;-64
2022/09/13 09:02:22;;;;;;;11.40;7.40;;;;;;;;;;1738597;81;21567;-61
2022/09/13 09:04:50;;;;;;;11.90;7.80;;;;;;;;;;1746063;80;21146;-62
2022/09/13 09:07:18;;;;;;;16.87;8.18;;;;;;;;;;1749711;80;21052;-63
2022/09/13 09:09:46;;;;;;;11.83;8.15;;;;;;;;;;1706124;83;21020;-61
2022/09/13 09:12:23;;;;;;;12.93;7.45;;;;;;;;;;1716785;82;21076;-61
2022/09/13 09:15:01;;;;;;;13.20;7.37;;;;;;;;;;1743328;80;21107;-60
2022/09/13 09:17:28;;;;;;;14.18;8.25;;;;;;;;;;1753627;80;21059;-61
2022/09/13 09:19:57;;;;;;;10.82;7.08;;;;;;;;;;1753599;80;21568;-61
2022/09/13 09:22:25;;;;;;;13.03;7.90;;;;;;;;;;1757139;80;21059;-61
2022/09/13 09:24:55;;;;;;;11.12;6.65;;;;;;;;;;1744225;81;21095;-63
2022/09/13 09:27:21;;;;;;;13.18;8.45;;;;;;;;;;1751045;81;21310;-62
2022/09/13 09:29:47;;;;;;;9.68;6.87;;;;;;;;;;1756301;81;21056;-62
2022/09/13 09:32:17;;;;;;;16.25;8.48;;;;;;;;;;1750468;81;21016;-63
2022/09/13 09:34:55;;;;;;;10.55;7.37;;;;;;;;;;1749903;80;21072;-63
2022/09/13 09:37:23;;;;;;;9.70;6.65;;;;;;;;;;1754655;80;21060;-63
2022/09/13 09:39:54;;;;;;;12.20;7.55;;;;;;;;;;1753851;80;21559;-66
2022/09/13 09:42:24;;;;;;;11.78;7.00;;;;;;;;;;1759344;80;21084;-64
2022/09/13 09:44:51;;;;;;;11.95;7.03;;;;;;;;;;1763667;80;21067;-64
2022/09/13 09:47:19;;;;;;;10.95;6.67;;;;;;;;;;1759086;80;21004;-63
2022/09/13 09:50:11;;;;;;;10.55;6.47;;;;;;;;;;1766636;80;21008;-64
2022/09/13 09:52:43;;;;;;;9.95;6.37;;;;;;;;;;1754989;80;21068;-65
2022/09/13 09:55:29;;;;;;;12.50;6.80;;;;;;;;;;1756299;80;20959;-66
2022/09/13 09:57:59;;;;;;;10.30;5.75;;;;;;;;;;1756361;80;21000;-63
2022/09/13 10:25:25;;;;;;;9.70;5.55;;;;;;;;;;1792657;79;23658;-61
2022/09/13 10:27:53;;;;;;;8.63;5.30;;;;;;;;;;1785672;78;21585;-62
2022/09/13 10:30:27;;;;;;;8.63;5.35;;;;;;;;;;1793173;78;21095;-61
2022/09/13 10:32:56;;;;;;;10.43;5.40;;;;;;;;;;1790962;78;21040;-62
2022/09/13 10:35:22;;;;;;;9.03;5.47;;;;;;;;;;1786591;79;21059;-61
2022/09/13 10:37:48;;;;;;;10.53;6.30;;;;;;;;;;1791506;78;22164;-61
2022/09/13 10:40:22;;;;;;;9.60;5.42;;;;;;;;;;1792714;78;20997;-61
2022/09/13 10:42:51;;;;;;;7.00;4.72;;;;;;;;;;1789920;79;21067;-61
2022/09/13 10:45:20;;;;;;;7.97;5.55;;;;;;;;;;1782868;80;20969;-68
2022/09/13 10:47:50;;;;;;;9.25;6.00;;;;;;;;;;1810144;78;21067;-65
2022/09/13 10:50:20;;;;;;;10.30;6.85;;;;;;;;;;1792613;80;21110;-64
2022/09/13 10:52:51;;;;;;;9.38;5.60;;;;;;;;;;1791381;78;21036;-62
2022/09/13 10:55:19;;;;;;;6.42;5.12;;;;;;;;;;1801696;78;22001;-61
2022/09/13 10:57:46;;;;;;;8.20;5.83;;;;;;;;;;1796812;78;21035;-61
2022/09/13 11:00:15;;;;;;;7.78;5.22;;;;;;;;;;1783888;78;21020;-61
2022/09/13 11:02:47;;;;;;;8.48;4.97;;;;;;;;;;1787976;78;21481;-62
2022/09/13 11:05:20;;;;;;;9.70;5.67;;;;;;;;;;1787880;78;21005;-62
2022/09/13 11:07:51;;;;;;;9.45;6.17;;;;;;;;;;1783148;80;21013;-61
2022/09/13 11:10:26;;;;;;;7.95;5.33;;;;;;;;;;1785582;80;21079;-62
2022/09/13 11:12:57;;;;;;;10.18;5.33;;;;;;;;;;1773792;80;21033;-62
2022/09/13 11:15:25;;;;;;;8.25;5.05;;;;;;;;;;1778444;78;21116;-61
2022/09/13 11:18:07;;;;;;;8.68;4.87;;;;;;;;;;1786586;79;21021;-60
2022/09/13 11:20:38;;;;;;;8.48;5.95;;;;;;;;;;1796779;78;21016;-62
2022/09/13 11:23:09;;;;;;;8.75;5.83;;;;;;;;;;1777465;80;21001;-62
2022/09/13 11:25:40;;;;;;;9.20;5.22;;;;;;;;;;1782475;79;21048;-63
2022/09/13 11:28:11;;;;;;;11.35;5.45;;;;;;;;;;1787077;79;21404;-60
2022/09/13 11:30:39;;;;;;;9.73;5.67;;;;;;;;;;1793481;79;21072;-62
2022/09/13 11:33:07;;;;;;;8.93;6.08;;;;;;;;;;1784782;79;21017;-61
2022/09/13 11:35:52;;;;;;;9.08;6.08;;;;;;;;;;1785846;79;21500;-62
2022/09/13 11:38:27;;;;;;;9.40;6.53;;;;;;;;;;1784385;79;21039;-62
2022/09/13 11:40:55;;;;;;;9.10;5.80;;;;;;;;;;1781438;79;21597;-61
2022/09/13 11:43:36;;;;;;;10.88;6.53;;;;;;;;;;1784400;79;21063;-62
2022/09/13 11:46:16;;;;;;;10.30;6.17;;;;;;;;;;1784479;79;21540;-60
2022/09/13 11:48:53;;;;;;;9.83;5.90;;;;;;;;;;1781372;79;21075;-61
2022/09/13 11:51:24;;;;;;;10.85;6.65;;;;;;;;;;1776916;79;20958;-61
2022/09/13 11:54:07;;;;;;;9.95;6.50;;;;;;;;;;1801153;79;21063;-61
2022/09/13 11:56:36;;;;;;;8.15;5.20;;;;;;;;;;1795254;79;21052;-62
2022/09/13 11:59:10;;;;;;;7.85;5.33;;;;;;;;;;1800818;79;21079;-61
2022/09/13 12:01:37;;;;;;;8.60;6.12;;;;;;;;;;1799595;79;21049;-62
2022/09/13 12:04:05;;;;;;;7.35;5.20;;;;;;;;;;1783077;79;21079;-62
2022/09/13 12:06:36;;;;;;;7.95;5.17;;;;;;;;;;1792886;79;21047;-62
2022/09/13 12:09:03;;;;;;;9.65;6.15;;;;;;;;;;1782364;80;21074;-61
2022/09/13 12:11:32;;;;;;;9.25;5.83;;;;;;;;;;1780420;80;21024;-61
2022/09/13 12:14:00;;;;;;;7.85;5.30;;;;;;;;;;1779372;79;21135;-61
2022/09/13 12:16:27;;;;;;;13.40;5.87;;;;;;;;;;1781460;79;21021;-61
2022/09/13 12:18:55;;;;;;;6.97;4.72;;;;;;;;;;1784517;79;21084;-62
2022/09/13 12:21:27;;;;;;;9.53;5.78;;;;;;;;;;1782594;79;21016;-62
2022/09/13 12:24:05;;;;;;;7.28;5.10;;;;;;;;;;1782693;79;21177;-63
2022/09/13 12:26:36;;;;;;;9.00;5.40;;;;;;;;;;1781389;79;21031;-61
2022/09/13 12:29:04;;;;;;;8.88;5.20;;;;;;;;;;1782694;79;21035;-61
2022/09/13 12:31:31;;;;;;;7.78;4.42;;;;;;;;;;1777753;79;22286;-62
2022/09/13 12:33:57;;;;;;;7.87;5.47;;;;;;;;;;1782684;79;21040;-62
2022/09/13 12:36:42;;;;;;;7.25;5.47;;;;;;;;;;1779147;79;21112;-62
2022/09/13 12:39:20;;;;;;;6.65;5.10;;;;;;;;;;1783826;79;21044;-61
2022/09/13 12:42:06;;;;;;;8.13;5.35;;;;;;;;;;1786280;79;21057;-61
2022/09/13 12:44:39;;;;;;;10.00;4.80;;;;;;;;;;1781558;79;22178;-62
2022/09/13 12:47:07;;;;;;;8.80;5.40;;;;;;;;;;1781403;79;21050;-62
2022/09/13 12:49:36;;;;;;;8.83;5.12;;;;;;;;;;1782886;79;21079;-61
2022/09/13 12:52:21;;;;;;;7.05;4.28;;;;;;;;;;1776874;79;21037;-61
2022/09/13 12:54:56;;;;;;;7.00;4.58;;;;;;;;;;1781458;80;21566;-60
2022/09/13 12:57:41;;;;;;;8.15;5.30;;;;;;;;;;1778980;80;21083;-60
2022/09/13 13:00:12;;;;;;;6.37;4.28;;;;;;;;;;1779516;80;21045;-61
2022/09/13 13:02:50;;;;;;;9.60;4.60;;;;;;;;;;1782193;79;21088;-60
2022/09/13 13:05:21;;;;;;;10.58;5.58;;;;;;;;;;1778282;80;21043;-60
2022/09/13 13:07:52;;;;;;;6.65;5.10;;;;;;;;;;1778960;80;21308;-60
2022/09/13 13:10:26;;;;;;;9.13;5.58;;;;;;;;;;1778413;80;21045;-60
2022/09/13 13:12:53;;;;;;;8.48;5.42;;;;;;;;;;1778552;79;21083;-61
2022/09/13 13:15:27;;;;;;;8.98;4.83;;;;;;;;;;1782874;79;21067;-60
2022/09/13 13:17:54;;;;;;;6.53;4.40;;;;;;;;;;1775146;79;21051;-62
2022/09/13 13:20:39;;;;;;;6.97;4.67;;;;;;;;;;1779932;80;21116;-61
2022/09/13 13:23:25;;;;;;;7.20;4.15;;;;;;;;;;1779122;79;21064;-61
2022/09/13 13:25:55;;;;;;;7.20;4.62;;;;;;;;;;1777094;79;21032;-60
2022/09/13 13:28:40;;;;;;;8.78;5.12;;;;;;;;;;1737927;80;21029;-60
2022/09/13 13:31:06;;;;;;;8.05;4.80;;;;;;;;;;1738742;81;21027;-60
2022/09/13 13:33:34;;;;;;;8.85;4.67;;;;;;;;;;1703970;82;21571;-62
2022/09/13 13:36:02;;;;;;;7.03;4.45;;;;;;;;;;1759347;80;21041;-60
2022/09/13 13:38:34;;;;;;;6.83;4.20;;;;;;;;;;1748242;80;21072;-61
2022/09/13 13:41:19;;;;;;;7.58;4.80;;;;;;;;;;1723981;82;21041;-62
2022/09/13 13:43:45;;;;;;;6.97;4.58;;;;;;;;;;1749937;80;22194;-61
2022/09/13 13:46:13;;;;;;;6.87;4.30;;;;;;;;;;1760719;80;21044;-62
2022/09/13 13:48:39;;;;;;;7.03;3.67;;;;;;;;;;1758385;80;21044;-62
2022/09/13 13:51:24;;;;;;;4.95;3.80;;;;;;;;;;1762163;81;21092;-61
2022/09/13 13:53:55;;;;;;;5.80;4.20;;;;;;;;;;1744810;80;21051;-60
2022/09/13 13:56:26;;;;;;;6.47;4.15;;;;;;;;;;1712204;82;21076;-58
2022/09/13 13:58:57;;;;;;;6.45;4.37;;;;;;;;;;1714443;83;21011;-59
2022/09/13 14:01:25;;;;;;;6.08;4.00;;;;;;;;;;1714868;83;21076;-59
2022/09/13 14:03:56;;;;;;;5.17;4.03;;;;;;;;;;1746518;82;21015;-60
2022/09/13 14:06:33;;;;;;;8.78;4.33;;;;;;;;;;1718303;82;20997;-60
2022/09/13 14:09:20;;;;;;;7.62;4.75;;;;;;;;;;1763730;80;21587;-59
2022/09/13 14:11:55;;;;;;;7.08;4.70;;;;;;;;;;1768000;80;21056;-59
2022/09/13 14:14:23;;;;;;;5.47;4.10;;;;;;;;;;1769895;80;21084;-59
2022/09/13 14:16:55;;;;;;;5.25;4.03;;;;;;;;;;1747893;80;21057;-59
2022/09/13 14:19:31;;;;;;;9.98;5.03;;;;;;;;;;1757133;80;21752;-59
2022/09/13 14:22:08;;;;;;;5.87;3.90;;;;;;;;;;1764330;80;21613;-61
2022/09/13 14:24:36;;;;;;;4.80;3.90;;;;;;;;;;1753051;80;21052;-61
2022/09/13 14:27:02;;;;;;;7.20;4.60;;;;;;;;;;1753820;80;21505;-59
2022/09/13 14:29:28;;;;;;;8.38;4.50;;;;;;;;;;1764042;80;21537;-59
2022/09/13 14:31:56;;;;;;;7.15;4.67;;;;;;;;;;1766784;79;21499;-60
2022/09/13 14:34:25;;;;;;;5.53;3.77;;;;;;;;;;1768155;80;21008;-62
2022/09/13 14:36:52;;;;;;;5.65;4.50;;;;;;;;;;1760302;80;21079;-63
2022/09/13 14:39:18;;;;;;;5.75;3.90;;;;;;;;;;1761078;80;20961;-61
2022/09/13 14:41:45;;;;;;;7.65;4.17;;;;;;;;;;1756719;80;21024;-61
2022/09/13 14:44:16;;;;;;;5.37;4.35;;;;;;;;;;1760718;80;21535;-61
2022/09/13 14:46:42;;;;;;;6.00;3.95;;;;;;;;;;1756437;81;21028;-62
2022/09/13 14:49:09;;;;;;;5.80;4.20;;;;;;;;;;1728987;81;21029;-62
2022/09/13 14:51:46;;;;;;;9.20;3.92;;;;;;;;;;1754932;80;21543;-61
2022/09/13 14:54:17;;;;;;;6.37;3.42;;;;;;;;;;1766440;80;21087;-62
2022/09/13 14:56:45;;;;;;;5.65;3.98;;;;;;;;;;1765036;80;21040;-61
2022/09/13 14:59:16;;;;;;;6.40;3.80;;;;;;;;;;1759651;80;21068;-61
2022/09/13 15:01:42;;;;;;;7.47;3.87;;;;;;;;;;1718416;81;21080;-61
2022/09/13 15:04:09;;;;;;;5.40;3.47;;;;;;;;;;1718527;83;21011;-61
2022/09/13 15:06:39;;;;;;;6.67;3.65;;;;;;;;;;1717980;82;21077;-62
2022/09/13 15:09:10;;;;;;;6.67;4.25;;;;;;;;;;1757271;80;21563;-60
2022/09/13 15:11:44;;;;;;;7.30;4.17;;;;;;;;;;1714194;82;21028;-60
2022/09/13 15:14:09;;;;;;;;;;;;;;;;;;1750657;80;21076;-61
2022/09/13 15:16:37;;;;;;;5.47;4.25;;;;;;;;;;1755872;80;20409;-60
2022/09/13 15:19:18;;;;;;;6.75;4.00;;;;;;;;;;1753586;80;21020;-60
2022/09/13 15:21:45;;;;;;;6.12;3.70;;;;;;;;;;1755557;80;21566;-61